createdAt,value
2022-10-28T00:01:30.047Z,10.96
2022-10-28T00:03:59.354Z,10.93
2022-10-28T00:06:33.535Z,10.92
2022-10-28T00:09:06.857Z,10.97
2022-10-28T00:11:37.360Z,10.85
2022-10-28T00:14:10.980Z,10.90
2022-10-28T00:16:38.869Z,10.90
2022-10-28T00:19:07.764Z,10.86
2022-10-28T00:21:36.468Z,10.86
2022-10-28T00:24:03.627Z,10.82
2022-10-28T00:26:32.613Z,10.80
2022-10-28T00:29:01.696Z,10.90
2022-10-28T00:31:30.097Z,10.89
2022-10-28T00:33:59.012Z,10.91
2022-10-28T00:36:37.531Z,10.94
2022-10-28T00:39:11.657Z,10.88
2022-10-28T00:41:41.527Z,10.92
2022-10-28T00:44:46.039Z,10.85
2022-10-28T00:47:31.565Z,10.80
2022-10-28T00:50:40.183Z,10.77
2022-10-28T00:53:13.060Z,10.79
2022-10-28T00:55:40.479Z,10.77
2022-10-28T00:58:09.551Z,10.75
2022-10-28T01:00:36.695Z,10.79
2022-10-28T01:03:03.670Z,10.75
2022-10-28T01:05:33.491Z,10.73
2022-10-28T01:08:02.900Z,10.73
2022-10-28T01:10:45.920Z,10.72
2022-10-28T01:14:00.673Z,10.67
2022-10-28T01:16:40.228Z,10.63
2022-10-28T01:19:25.719Z,10.59
2022-10-28T01:21:52.536Z,10.64
2022-10-28T01:24:26.984Z,10.63
2022-10-28T01:26:57.053Z,10.63
2022-10-28T01:29:42.092Z,10.61
2022-10-28T01:32:33.885Z,10.61
2022-10-28T01:38:21.925Z,10.60
2022-10-28T01:41:03.888Z,10.62
2022-10-28T01:43:45.046Z,10.59
2022-10-28T01:46:17.486Z,10.63
2022-10-28T01:48:50.259Z,10.63
2022-10-28T01:51:22.911Z,10.64
2022-10-28T01:53:52.942Z,10.65
2022-10-28T01:56:24.680Z,10.62
2022-10-28T01:58:55.739Z,10.62
2022-10-28T02:01:24.470Z,10.63
2022-10-28T02:03:52.370Z,10.61
2022-10-28T02:06:22.580Z,10.55
2022-10-28T02:09:27.677Z,10.52
2022-10-28T02:12:15.630Z,10.48
2022-10-28T02:15:02.150Z,10.47
2022-10-28T02:17:37.649Z,10.41
2022-10-28T02:20:18.166Z,10.29
2022-10-28T02:22:59.966Z,10.22
2022-10-28T02:25:36.011Z,10.17
2022-10-28T02:30:51.773Z,10.06
2022-10-28T02:33:23.821Z,9.96
2022-10-28T02:36:15.060Z,9.97
2022-10-28T02:38:51.811Z,9.89
2022-10-28T02:41:53.945Z,9.86
2022-10-28T02:44:31.491Z,9.78
2022-10-28T02:47:02.682Z,9.71
2022-10-28T02:49:32.289Z,9.75
2022-10-28T02:52:02.932Z,9.67
2022-10-28T02:54:36.381Z,9.61
2022-10-28T02:57:10.823Z,9.60
2022-10-28T02:59:37.656Z,9.49
2022-10-28T03:02:04.603Z,9.51
2022-10-28T03:04:31.512Z,9.41
2022-10-28T03:25:56.403Z,8.71
2022-10-28T03:28:23.266Z,8.87
2022-10-28T03:30:50.124Z,9.03
2022-10-28T03:33:17.013Z,9.13
2022-10-28T03:35:44.755Z,9.23
2022-10-28T03:38:11.812Z,9.31
2022-10-28T03:40:38.687Z,9.41
2022-10-28T03:43:05.560Z,9.47
2022-10-28T03:45:32.403Z,9.46
2022-10-28T03:47:59.322Z,9.48
2022-10-28T03:50:26.146Z,9.50
2022-10-28T03:52:53.037Z,9.48
2022-10-28T03:55:19.898Z,9.51
2022-10-28T03:57:46.720Z,9.52
2022-10-28T04:00:14.419Z,9.49
2022-10-28T04:02:41.301Z,9.52
2022-10-28T04:05:08.636Z,9.58
2022-10-28T04:07:35.711Z,9.77
2022-10-28T04:10:02.607Z,9.84
2022-10-28T04:12:29.416Z,9.77
2022-10-28T04:14:56.322Z,9.82
2022-10-28T04:17:23.139Z,9.77
2022-10-28T04:19:49.997Z,9.73
2022-10-28T04:22:17.238Z,9.81
2022-10-28T04:24:44.086Z,9.81
2022-10-28T04:27:10.986Z,9.84
2022-10-28T04:29:37.871Z,9.72
2022-10-28T04:32:04.809Z,9.73
2022-10-28T04:34:31.652Z,9.69
2022-10-28T04:36:58.458Z,9.72
2022-10-28T04:39:25.304Z,9.79
2022-10-28T04:41:52.135Z,9.79
2022-10-28T04:44:19.051Z,9.97
2022-10-28T04:46:45.916Z,10.04
2022-10-28T04:49:12.775Z,9.95
2022-10-28T04:51:39.634Z,10.10
2022-10-28T04:54:06.638Z,9.71
2022-10-28T04:56:33.588Z,9.74
2022-10-28T04:59:00.497Z,9.72
2022-10-28T05:01:27.487Z,9.82
2022-10-28T05:03:54.494Z,9.71
2022-10-28T05:06:21.417Z,9.83
2022-10-28T05:08:48.288Z,10.00
2022-10-28T05:11:15.319Z,9.90
2022-10-28T05:13:42.185Z,10.01
2022-10-28T05:16:09.083Z,10.04
2022-10-28T05:18:35.989Z,10.00
2022-10-28T05:21:02.926Z,9.98
2022-10-28T05:23:30.795Z,10.12
2022-10-28T05:25:58.098Z,10.12
2022-10-28T05:28:24.995Z,10.16
2022-10-28T05:30:52.109Z,10.40
2022-10-28T05:33:19.059Z,10.45
2022-10-28T05:35:45.937Z,10.70
2022-10-28T05:38:12.840Z,11.00
2022-10-28T05:40:39.726Z,11.45
2022-10-28T05:43:06.625Z,11.82
2022-10-28T05:45:33.477Z,12.07
2022-10-28T05:48:00.349Z,12.38
2022-10-28T05:50:27.627Z,12.56
2022-10-28T05:52:57.552Z,13.31
2022-10-28T05:55:28.356Z,13.83
2022-10-28T05:57:56.220Z,14.17
2022-10-28T06:00:25.761Z,14.26
2022-10-28T06:02:52.956Z,14.40
2022-10-28T06:05:20.677Z,13.96
2022-10-28T06:07:47.528Z,14.01
2022-10-28T06:10:14.457Z,13.77
2022-10-28T06:12:39.938Z,13.39
2022-10-28T06:15:07.244Z,13.71
2022-10-28T06:17:34.211Z,13.45
2022-10-28T06:20:01.353Z,13.79
2022-10-28T06:22:28.235Z,13.92
2022-10-28T06:24:55.070Z,13.93
2022-10-28T06:27:21.929Z,13.36
2022-10-28T06:29:48.930Z,13.15
2022-10-28T06:32:15.742Z,13.24
2022-10-28T06:34:42.655Z,13.48
2022-10-28T06:37:09.569Z,13.72
2022-10-28T06:39:39.206Z,14.14
2022-10-28T06:42:06.023Z,14.51
2022-10-28T06:44:32.917Z,14.25
2022-10-28T06:47:01.354Z,14.66
2022-10-28T06:49:29.363Z,14.78
2022-10-28T06:51:56.229Z,14.70
2022-10-28T06:54:23.134Z,14.65
2022-10-28T06:56:50.052Z,14.61
2022-10-28T06:59:16.851Z,15.06
2022-10-28T07:01:44.353Z,15.51
2022-10-28T07:04:13.246Z,15.53
2022-10-28T07:06:40.747Z,16.11
2022-10-28T07:09:07.992Z,16.84
2022-10-28T07:11:34.837Z,16.54
2022-10-28T07:14:01.969Z,16.77
2022-10-28T07:16:28.793Z,16.36
2022-10-28T07:18:55.613Z,18.13
2022-10-28T07:21:25.753Z,17.58
2022-10-28T07:23:52.581Z,18.84
2022-10-28T07:26:19.402Z,20.06
2022-10-28T07:28:46.274Z,21.91
2022-10-28T07:31:13.168Z,22.13
2022-10-28T07:33:39.965Z,22.47
2022-10-28T07:36:07.529Z,22.49
2022-10-28T07:38:34.932Z,23.60
2022-10-28T07:41:10.262Z,23.74
2022-10-28T07:43:38.202Z,23.13
2022-10-28T07:46:06.568Z,24.34
2022-10-28T07:48:34.432Z,23.88
2022-10-28T07:51:05.746Z,23.36
2022-10-28T07:53:33.278Z,22.90
2022-10-28T07:56:06.000Z,23.65
2022-10-28T07:58:32.929Z,25.23
2022-10-28T08:01:08.716Z,26.39
2022-10-28T08:03:38.808Z,24.88
2022-10-28T08:06:18.253Z,25.02
2022-10-28T08:08:47.004Z,25.06
2022-10-28T08:11:19.834Z,26.38
2022-10-28T08:13:47.190Z,24.77
2022-10-28T08:16:14.086Z,24.99
2022-10-28T08:18:41.146Z,27.02
2022-10-28T08:21:09.524Z,26.69
2022-10-28T08:23:38.395Z,27.90
2022-10-28T08:26:06.362Z,28.97
2022-10-28T08:28:33.249Z,29.37
2022-10-28T08:31:09.124Z,29.60
2022-10-28T08:33:38.241Z,30.56
2022-10-28T08:36:06.574Z,30.52
2022-10-28T08:38:33.511Z,32.40
2022-10-28T08:41:28.028Z,32.90
2022-10-28T08:44:32.474Z,31.21
2022-10-28T08:47:20.115Z,31.16
2022-10-28T08:49:51.042Z,31.23
2022-10-28T08:52:43.102Z,29.02
2022-10-28T08:55:25.977Z,30.52
2022-10-28T08:58:00.955Z,30.12
2022-10-28T09:00:31.517Z,30.54
2022-10-28T09:03:09.249Z,28.00
2022-10-28T09:05:36.308Z,26.47
2022-10-28T09:08:03.582Z,29.29
2022-10-28T09:10:46.324Z,28.19
2022-10-28T09:13:45.098Z,27.61
2022-10-28T09:16:25.245Z,28.86
2022-10-28T09:18:54.304Z,28.57
2022-10-28T09:21:32.664Z,27.40
2022-10-28T09:24:06.134Z,27.71
2022-10-28T09:26:38.664Z,27.50
2022-10-28T09:29:17.635Z,26.79
2022-10-28T09:31:56.241Z,25.91
2022-10-28T09:34:50.851Z,26.92
2022-10-28T09:37:17.619Z,25.93
2022-10-28T09:39:49.832Z,25.72
2022-10-28T09:42:27.596Z,25.23
2022-10-28T09:44:58.300Z,25.60
2022-10-28T09:47:35.501Z,24.70
2022-10-28T09:50:07.552Z,24.47
2022-10-28T09:52:46.288Z,25.09
2022-10-28T09:55:20.511Z,24.94
2022-10-28T09:57:47.554Z,24.81
2022-10-28T10:00:16.385Z,24.09
2022-10-28T10:02:44.801Z,24.85
2022-10-28T10:05:16.976Z,24.68
2022-10-28T10:08:04.994Z,25.17
2022-10-28T10:10:48.515Z,26.08
2022-10-28T10:13:20.379Z,27.23
2022-10-28T10:15:53.967Z,27.52
2022-10-28T10:18:26.061Z,27.28
2022-10-28T10:20:55.963Z,26.86
2022-10-28T10:23:26.834Z,26.70
2022-10-28T10:26:12.604Z,26.81
2022-10-28T10:28:48.511Z,26.80
2022-10-28T10:31:25.580Z,26.84
2022-10-28T10:33:55.841Z,25.69
2022-10-28T10:36:28.454Z,25.56
2022-10-28T10:39:00.793Z,25.70
2022-10-28T10:41:38.931Z,25.39
2022-10-28T10:44:34.013Z,24.86
2022-10-28T10:47:05.785Z,24.72
2022-10-28T10:49:37.397Z,24.71
2022-10-28T10:52:26.211Z,24.62
2022-10-28T10:55:04.835Z,23.60
2022-10-28T10:57:33.449Z,24.44
2022-10-28T11:00:01.196Z,23.98
2022-10-28T11:02:31.737Z,24.09
2022-10-28T11:05:03.076Z,24.29
2022-10-28T11:07:31.683Z,25.37
2022-10-28T11:09:59.472Z,23.88
2022-10-28T11:12:36.742Z,23.80
2022-10-28T11:15:15.656Z,24.64
2022-10-28T11:17:55.277Z,23.54
2022-10-28T11:20:47.691Z,21.92
2022-10-28T11:23:22.953Z,21.89
2022-10-28T11:25:54.553Z,21.11
2022-10-28T11:28:33.504Z,20.93
2022-10-28T11:31:09.522Z,20.95
2022-10-28T11:33:45.249Z,21.90
2022-10-28T11:36:29.965Z,22.25
2022-10-28T11:39:20.806Z,23.13
2022-10-28T11:42:40.207Z,22.41
2022-10-28T11:45:19.872Z,22.88
2022-10-28T11:47:53.162Z,22.88
2022-10-28T11:50:42.547Z,22.98
2022-10-28T11:53:25.346Z,22.25
2022-10-28T11:56:34.299Z,20.61
2022-10-28T11:59:38.825Z,19.32
2022-10-28T12:02:05.733Z,18.73
2022-10-28T12:04:54.207Z,18.39
2022-10-28T12:07:39.728Z,17.92
2022-10-28T12:10:18.549Z,17.37
2022-10-28T12:12:59.727Z,17.22
2022-10-28T12:15:57.654Z,17.08
2022-10-28T12:18:36.313Z,17.11
2022-10-28T12:21:15.491Z,17.06
2022-10-28T12:23:43.450Z,16.91
2022-10-28T12:26:15.792Z,16.96
2022-10-28T12:28:50.136Z,16.79
2022-10-28T12:31:25.759Z,16.72
2022-10-28T12:34:02.222Z,16.76
2022-10-28T12:36:42.989Z,16.81
2022-10-28T12:39:18.568Z,16.82
2022-10-28T12:42:09.755Z,16.90
2022-10-28T12:44:38.805Z,16.87
2022-10-28T12:47:12.072Z,16.70
2022-10-28T12:49:57.572Z,16.70
2022-10-28T12:52:51.920Z,16.54
2022-10-28T12:55:24.624Z,16.42
2022-10-28T12:58:18.712Z,16.56
2022-10-28T13:00:50.698Z,16.64
2022-10-28T13:03:18.923Z,16.68
2022-10-28T13:06:10.633Z,16.63
2022-10-28T13:08:46.713Z,16.56
2022-10-28T13:11:19.567Z,16.55
2022-10-28T13:13:58.366Z,16.45
2022-10-28T13:16:27.957Z,16.47
2022-10-28T13:18:54.793Z,16.45
2022-10-28T13:21:42.901Z,16.44
2022-10-28T13:24:18.324Z,16.30
2022-10-28T13:26:46.810Z,16.28
2022-10-28T13:29:22.720Z,16.30
2022-10-28T13:31:50.914Z,16.17
2022-10-28T13:34:20.605Z,16.11
2022-10-28T13:36:57.704Z,16.07
2022-10-28T13:39:35.871Z,15.91
2022-10-28T13:42:15.006Z,15.92
2022-10-28T13:44:49.572Z,15.83
2022-10-28T13:47:36.451Z,15.81
2022-10-28T13:50:06.168Z,15.83
2022-10-28T13:52:40.991Z,15.77
2022-10-28T13:55:48.347Z,15.76
2022-10-28T13:58:24.625Z,15.60
2022-10-28T14:00:53.501Z,15.58
2022-10-28T14:03:26.344Z,15.60
2022-10-28T14:05:57.542Z,15.59
2022-10-28T14:08:34.703Z,15.62
2022-10-28T14:11:24.770Z,15.57
2022-10-28T14:14:04.095Z,15.45
2022-10-28T14:16:39.721Z,15.30
2022-10-28T14:19:17.142Z,15.35
2022-10-28T14:21:48.202Z,15.17
2022-10-28T14:24:35.248Z,15.20
2022-10-28T14:27:08.203Z,15.29
2022-10-28T14:29:48.288Z,15.25
2022-10-28T14:32:50.272Z,15.27
2022-10-28T14:35:39.381Z,15.15
2022-10-28T14:38:40.229Z,15.04
2022-10-28T14:41:26.845Z,14.91
2022-10-28T14:44:08.634Z,14.96
2022-10-28T14:47:10.372Z,14.98
2022-10-28T14:49:38.538Z,14.94
2022-10-28T14:52:16.478Z,14.90
2022-10-28T14:54:49.226Z,14.91
2022-10-28T14:57:22.209Z,14.85
2022-10-28T14:59:50.993Z,14.89
2022-10-28T15:02:32.889Z,14.75
2022-10-28T15:05:25.519Z,14.68
2022-10-28T15:07:53.248Z,14.67
2022-10-28T15:10:27.448Z,14.61
2022-10-28T15:27:38.923Z,13.77
2022-10-28T15:30:26.360Z,13.88
2022-10-28T15:32:54.697Z,13.98
2022-10-28T15:35:39.996Z,14.02
2022-10-28T15:38:29.554Z,14.06
2022-10-28T15:40:57.296Z,14.08
2022-10-28T15:43:26.133Z,14.08
2022-10-28T15:45:53.092Z,14.08
2022-10-28T15:48:25.037Z,14.01
2022-10-28T15:51:12.304Z,13.93
2022-10-28T15:53:46.343Z,13.97
2022-10-28T15:56:20.536Z,14.00
2022-10-28T15:58:59.636Z,14.06
2022-10-28T16:01:33.274Z,13.98
2022-10-28T16:04:00.184Z,13.96
2022-10-28T16:06:33.723Z,13.99
2022-10-28T16:09:12.772Z,13.98
2022-10-28T16:11:44.477Z,13.92
2022-10-28T16:14:30.148Z,13.97
2022-10-28T16:17:11.684Z,13.86
2022-10-28T16:19:42.232Z,13.92
2022-10-28T16:22:15.817Z,13.93
2022-10-28T16:24:42.699Z,13.91
2022-10-28T16:27:21.919Z,13.87
2022-10-28T16:29:49.491Z,13.81
2022-10-28T16:32:20.511Z,13.76
2022-10-28T16:34:47.328Z,13.79
2022-10-28T16:37:53.817Z,13.71
2022-10-28T16:40:49.918Z,13.69
2022-10-28T16:43:15.402Z,13.72
2022-10-28T16:45:42.459Z,13.68
2022-10-28T16:48:12.905Z,13.60
2022-10-28T16:50:42.461Z,13.64
2022-10-28T16:53:12.442Z,13.66
2022-10-28T16:55:39.516Z,13.54
2022-10-28T16:58:06.989Z,13.60
2022-10-28T17:00:33.964Z,13.54
2022-10-28T17:03:01.389Z,13.56
2022-10-28T17:05:28.755Z,13.54
2022-10-28T17:07:56.272Z,13.54
2022-10-28T17:10:23.691Z,13.58
2022-10-28T17:12:50.983Z,13.53
2022-10-28T17:15:18.592Z,13.51
2022-10-28T17:17:49.077Z,13.53
2022-10-28T17:20:16.269Z,13.47
2022-10-28T17:22:43.136Z,13.50
2022-10-28T17:25:10.837Z,13.48
2022-10-28T17:27:37.706Z,13.49
2022-10-28T17:30:05.403Z,13.44
2022-10-28T17:32:32.351Z,13.46
2022-10-28T17:34:59.176Z,13.45
2022-10-28T17:37:26.002Z,13.36
2022-10-28T17:39:52.926Z,13.43
2022-10-28T17:42:19.745Z,13.41
2022-10-28T17:44:46.599Z,13.43
2022-10-28T17:47:13.444Z,13.47
2022-10-28T17:49:40.247Z,13.36
2022-10-28T17:52:07.133Z,13.39
2022-10-28T17:54:33.975Z,13.38
2022-10-28T17:57:00.877Z,13.36
2022-10-28T17:59:27.707Z,13.36
2022-10-28T18:01:54.880Z,13.35
2022-10-28T18:04:26.618Z,13.33
2022-10-28T18:06:55.342Z,13.33
2022-10-28T18:09:22.743Z,13.24
2022-10-28T18:11:50.615Z,13.33
2022-10-28T18:14:20.240Z,13.33
2022-10-28T18:16:47.184Z,13.35
2022-10-28T18:19:14.248Z,13.34
2022-10-28T18:21:41.168Z,13.31
2022-10-28T18:24:08.490Z,13.26
2022-10-28T18:26:37.534Z,13.32
2022-10-28T18:29:06.153Z,13.18
2022-10-28T18:31:34.201Z,13.14
2022-10-28T18:34:01.901Z,13.09
2022-10-28T18:36:34.418Z,13.14
2022-10-28T18:39:03.904Z,13.11
2022-10-28T18:41:31.407Z,13.08
2022-10-28T18:44:00.627Z,13.02
2022-10-28T18:46:29.281Z,13.04
2022-10-28T18:51:27.963Z,12.83
2022-10-28T18:53:56.611Z,12.94
2022-10-28T18:56:26.223Z,12.85
2022-10-28T18:58:53.112Z,12.87
2022-10-28T19:01:22.985Z,12.87
2022-10-28T19:03:54.725Z,12.88
2022-10-28T19:06:22.627Z,12.88
2022-10-28T19:08:54.438Z,12.81
2022-10-28T19:11:22.668Z,12.78
2022-10-28T19:13:49.835Z,12.74
2022-10-28T19:16:16.664Z,12.71
2022-10-28T19:18:43.593Z,12.69
2022-10-28T19:21:14.965Z,12.66
2022-10-28T19:23:42.917Z,12.58
2022-10-28T19:26:11.255Z,12.55
2022-10-28T19:28:42.980Z,12.47
2022-10-28T19:31:12.495Z,12.31
2022-10-28T19:33:39.746Z,12.24
2022-10-28T19:36:18.871Z,12.07
2022-10-28T19:38:47.359Z,12.13
2022-10-28T19:41:19.404Z,12.05
2022-10-28T19:43:46.918Z,11.96
2022-10-28T19:46:16.367Z,11.85
2022-10-28T19:48:46.334Z,11.79
2022-10-28T19:51:15.765Z,11.71
2022-10-28T19:53:48.398Z,11.70
2022-10-28T19:56:22.302Z,11.66
2022-10-28T19:59:01.005Z,11.52
2022-10-28T20:01:30.222Z,11.43
2022-10-28T20:03:57.943Z,11.43
2022-10-28T20:06:27.531Z,11.36
2022-10-28T20:08:54.374Z,11.36
2022-10-28T20:11:27.207Z,11.31
2022-10-28T20:13:55.863Z,11.42
2022-10-28T20:16:23.273Z,11.37
2022-10-28T20:18:50.634Z,11.29
2022-10-28T20:21:19.792Z,11.29
2022-10-28T20:26:16.906Z,11.28
2022-10-28T20:28:43.824Z,11.29
2022-10-28T20:31:12.835Z,11.33
2022-10-28T20:33:41.975Z,11.29
2022-10-28T20:36:26.522Z,11.27
2022-10-28T20:38:58.387Z,11.23
2022-10-28T20:41:27.491Z,11.34
2022-10-28T20:44:01.588Z,11.34
2022-10-28T20:46:28.665Z,11.32
2022-10-28T20:48:56.629Z,11.18
2022-10-28T20:51:25.648Z,11.22
2022-10-28T20:53:52.623Z,11.23
2022-10-28T20:56:24.751Z,11.24
2022-10-28T20:58:52.724Z,11.24
2022-10-28T21:01:25.367Z,11.20
2022-10-28T21:04:05.298Z,11.09
2022-10-28T21:06:32.518Z,11.05
2022-10-28T21:08:59.594Z,11.06
2022-10-28T21:11:28.301Z,11.05
2022-10-28T21:13:58.668Z,11.05
2022-10-28T21:16:27.343Z,11.01
2022-10-28T21:18:55.002Z,11.03
2022-10-28T21:21:23.205Z,10.97
2022-10-28T21:23:50.275Z,10.97
2022-10-28T21:26:17.270Z,10.99
2022-10-28T21:28:45.093Z,10.98
2022-10-28T21:31:14.499Z,10.96
2022-10-28T21:33:42.459Z,10.96
2022-10-28T21:36:17.093Z,10.94
2022-10-28T21:38:44.270Z,10.98
2022-10-28T21:41:17.813Z,10.97
2022-10-28T21:43:48.608Z,10.97
2022-10-28T21:46:16.852Z,11.01
2022-10-28T21:48:43.992Z,11.02
2022-10-28T21:51:14.405Z,10.98
2022-10-28T21:53:43.052Z,10.92
2022-10-28T21:56:18.296Z,10.99
2022-10-28T21:58:50.557Z,11.01
2022-10-28T22:01:19.072Z,10.86
2022-10-28T22:03:46.122Z,10.86
2022-10-28T22:06:13.184Z,10.70
2022-10-28T22:08:40.186Z,10.67
2022-10-28T22:11:11.604Z,10.67
2022-10-28T22:13:38.622Z,10.61
2022-10-28T22:16:08.365Z,10.53
2022-10-28T22:18:37.493Z,10.48
2022-10-28T22:21:14.559Z,10.47
2022-10-28T22:23:42.060Z,10.41
2022-10-28T22:26:11.628Z,10.41
2022-10-28T22:28:39.971Z,10.31
2022-10-28T22:31:09.218Z,10.33
2022-10-28T22:33:36.349Z,10.32
2022-10-28T22:36:09.289Z,10.34
2022-10-28T22:38:36.412Z,10.29
2022-10-28T22:41:21.263Z,10.30
2022-10-28T22:43:51.091Z,10.30
2022-10-28T22:46:18.332Z,10.25
2022-10-28T22:48:45.939Z,10.21
2022-10-28T22:51:13.453Z,10.20
2022-10-28T22:53:40.807Z,10.16
2022-10-28T22:56:09.711Z,10.13
2022-10-28T22:58:36.594Z,10.07
2022-10-28T23:01:18.557Z,10.00
2022-10-28T23:03:48.280Z,10.03
2022-10-28T23:06:18.436Z,9.99
2022-10-28T23:08:46.067Z,10.00
2022-10-28T23:11:14.169Z,10.01
2022-10-28T23:13:41.005Z,10.07
2022-10-28T23:16:10.310Z,10.07
2022-10-28T23:18:37.785Z,10.03
2022-10-28T23:21:12.863Z,9.97
2022-10-28T23:23:40.855Z,9.92
2022-10-28T23:26:10.567Z,9.98
2022-10-28T23:28:37.491Z,9.94
2022-10-28T23:31:05.832Z,10.00
2022-10-28T23:33:34.203Z,10.00
2022-10-28T23:36:06.164Z,9.97
2022-10-28T23:38:33.410Z,9.95
2022-10-28T23:41:05.249Z,9.94
2022-10-28T23:43:32.908Z,9.94
2022-10-28T23:46:00.376Z,10.01
2022-10-28T23:48:28.659Z,9.94
2022-10-28T23:50:56.394Z,10.01
2022-10-28T23:53:24.216Z,9.93
2022-10-28T23:55:52.236Z,9.94
2022-10-28T23:58:20.871Z,9.91
